createdAt,value
2023-02-11T00:04:48.044Z,14.30
2023-02-11T00:09:50.081Z,8.18
2023-02-11T00:14:52.545Z,7.88
2023-02-11T00:19:54.839Z,7.75
2023-02-11T00:24:57.249Z,7.38
2023-02-11T00:30:00.756Z,6.97
2023-02-11T00:35:05.411Z,6.82
2023-02-11T00:40:07.718Z,6.82
2023-02-11T00:45:10.042Z,6.95
2023-02-11T00:50:12.199Z,8.90
2023-02-11T00:55:14.474Z,8.77
2023-02-11T01:00:16.740Z,7.65
2023-02-11T01:05:20.548Z,8.00
2023-02-11T01:10:23.637Z,7.15
2023-02-11T01:15:25.822Z,9.32
2023-02-11T01:20:28.566Z,8.00
2023-02-11T01:25:31.875Z,12.13
2023-02-11T01:30:33.942Z,7.15
2023-02-11T01:35:35.955Z,7.72
2023-02-11T01:40:38.248Z,8.18
2023-02-11T01:45:43.117Z,7.97
2023-02-11T01:50:48.089Z,7.03
2023-02-11T01:56:09.299Z,10.35
2023-02-11T02:06:19.994Z,6.45
2023-02-11T02:11:21.941Z,6.40
2023-02-11T02:16:30.231Z,5.90
2023-02-11T02:21:57.381Z,9.43
2023-02-11T02:27:26.587Z,6.93
2023-02-11T02:33:20.579Z,9.75
2023-02-11T02:38:49.200Z,7.68
2023-02-11T02:43:51.545Z,6.90
2023-02-11T02:48:54.986Z,6.28
2023-02-11T02:54:24.413Z,6.82
2023-02-11T02:59:44.565Z,7.25
2023-02-11T03:04:53.870Z,7.20
2023-02-11T03:10:02.025Z,8.30
2023-02-11T03:15:05.670Z,7.35
2023-02-11T03:20:10.830Z,6.40
2023-02-11T03:25:12.914Z,6.93
2023-02-11T03:30:28.932Z,7.35
2023-02-11T03:35:40.230Z,9.27
2023-02-11T03:40:46.324Z,6.30
2023-02-11T03:45:50.032Z,5.18
2023-02-11T03:50:52.772Z,7.03
2023-02-11T03:55:55.464Z,6.10
2023-02-11T04:00:57.568Z,6.13
2023-02-11T04:05:59.659Z,6.03
2023-02-11T04:11:01.692Z,6.70
2023-02-11T04:16:03.986Z,5.72
2023-02-11T04:21:07.225Z,6.60
2023-02-11T04:26:09.197Z,6.20
2023-02-11T04:31:12.197Z,6.25
2023-02-11T04:36:14.172Z,9.52
2023-02-11T04:41:16.276Z,5.60
2023-02-11T04:46:18.245Z,10.32
2023-02-11T04:51:20.229Z,5.80
2023-02-11T04:56:22.268Z,4.97
2023-02-11T05:01:24.341Z,6.38
2023-02-11T05:06:26.378Z,7.22
2023-02-11T05:11:28.283Z,5.70
2023-02-11T05:16:30.181Z,6.28
2023-02-11T05:21:32.145Z,5.95
2023-02-11T05:26:34.120Z,5.55
2023-02-11T05:31:36.052Z,6.43
2023-02-11T05:36:38.087Z,7.72
2023-02-11T05:41:40.028Z,5.18
2023-02-11T05:46:42.017Z,5.05
2023-02-11T05:51:43.959Z,7.57
2023-02-11T05:56:46.110Z,6.47
2023-02-11T06:01:48.022Z,6.03
2023-02-11T06:06:50.010Z,7.50
2023-02-11T06:11:52.015Z,5.70
2023-02-11T06:16:53.963Z,6.00
2023-02-11T06:21:56.564Z,6.03
2023-02-11T06:26:58.584Z,6.70
2023-02-11T06:32:00.553Z,7.97
2023-02-11T06:37:02.777Z,6.13
2023-02-11T06:42:07.019Z,4.80
2023-02-11T06:47:09.775Z,5.60
2023-02-11T06:52:11.671Z,5.80
2023-02-11T06:57:13.651Z,6.20
2023-02-11T07:02:15.786Z,7.00
2023-02-11T07:07:17.763Z,7.32
2023-02-11T07:12:20.063Z,11.93
2023-02-11T07:17:21.963Z,5.97
2023-02-11T07:22:23.936Z,4.95
2023-02-11T07:27:25.921Z,5.45
2023-02-11T07:32:27.786Z,5.47
2023-02-11T07:37:29.717Z,7.15
2023-02-11T07:42:31.648Z,11.30
2023-02-11T07:47:35.069Z,9.88
2023-02-11T07:52:37.074Z,7.50
2023-02-11T07:57:39.063Z,7.88
2023-02-11T08:02:40.977Z,5.35
2023-02-11T08:07:45.580Z,8.13
2023-02-11T08:12:47.977Z,4.90
2023-02-11T08:17:50.064Z,7.72
2023-02-11T08:22:51.906Z,9.18
2023-02-11T08:27:53.918Z,7.40
2023-02-11T08:32:56.761Z,5.28
2023-02-11T08:37:58.735Z,7.63
2023-02-11T08:43:00.844Z,9.95
2023-02-11T08:48:02.908Z,6.15
2023-02-11T08:53:04.882Z,6.13
2023-02-11T08:58:07.326Z,9.63
2023-02-11T09:03:09.721Z,9.75
2023-02-11T09:08:12.336Z,7.93
2023-02-11T09:13:14.553Z,11.10
2023-02-11T09:18:16.686Z,8.40
2023-02-11T09:23:18.723Z,6.15
2023-02-11T09:28:20.849Z,8.75
2023-02-11T09:33:22.812Z,7.50
2023-02-11T09:38:24.864Z,8.60
2023-02-11T09:43:46.866Z,14.13
2023-02-11T09:48:49.740Z,6.80
2023-02-11T09:53:54.667Z,12.68
2023-02-11T09:58:56.517Z,17.35
2023-02-11T10:04:19.309Z,6.75
2023-02-11T10:09:36.100Z,10.82
2023-02-11T10:14:59.385Z,6.90
2023-02-11T10:20:24.987Z,11.07
2023-02-11T10:25:28.491Z,7.68
2023-02-11T10:30:33.968Z,6.45
2023-02-11T10:35:35.858Z,17.88
2023-02-11T10:40:37.886Z,25.50
2023-02-11T10:45:44.457Z,15.07
2023-02-11T10:50:46.387Z,7.95
2023-02-11T10:55:53.900Z,12.38
2023-02-11T11:00:57.715Z,7.85
2023-02-11T11:06:02.055Z,10.40
2023-02-11T11:16:10.395Z,12.27
2023-02-11T11:21:31.571Z,10.85
2023-02-11T11:26:42.588Z,5.87
2023-02-11T11:31:50.723Z,4.78
2023-02-11T11:36:52.789Z,5.60
2023-02-11T11:42:03.393Z,9.43
2023-02-11T11:47:20.056Z,5.30
2023-02-11T11:52:46.742Z,4.97
2023-02-11T11:57:49.345Z,2.88
2023-02-11T12:03:16.175Z,4.88
2023-02-11T12:08:33.288Z,3.90
2023-02-11T12:13:46.759Z,6.22
2023-02-11T12:19:11.392Z,7.15
2023-02-11T12:24:25.177Z,13.88
2023-02-11T12:29:29.801Z,19.38
2023-02-11T12:34:42.093Z,15.77
2023-02-11T12:40:31.390Z,23.23
2023-02-11T12:45:49.320Z,7.00
2023-02-11T12:51:00.275Z,6.68
2023-02-11T12:56:38.932Z,9.90
2023-02-11T13:01:41.558Z,5.07
2023-02-11T13:06:48.593Z,5.45
2023-02-11T13:11:52.264Z,7.15
2023-02-11T13:16:54.890Z,3.42
2023-02-11T13:22:20.516Z,3.80
2023-02-11T13:27:44.145Z,4.68
2023-02-11T13:32:55.668Z,3.72
2023-02-11T13:37:58.563Z,4.00
2023-02-11T13:43:02.052Z,5.65
2023-02-11T13:48:18.420Z,4.80
2023-02-11T13:53:20.797Z,4.82
2023-02-11T13:58:28.847Z,3.50
2023-02-11T14:03:57.521Z,3.83
2023-02-11T14:09:01.258Z,5.78
2023-02-11T14:14:12.343Z,5.20
2023-02-11T14:19:31.679Z,5.97
2023-02-11T14:24:33.653Z,4.10
2023-02-11T14:29:59.780Z,5.50
2023-02-11T14:35:22.960Z,3.53
2023-02-11T14:40:36.951Z,4.32
2023-02-11T14:45:39.552Z,3.10
2023-02-11T14:50:54.396Z,2.70
2023-02-11T14:55:56.345Z,6.07
2023-02-11T15:01:06.715Z,2.03
2023-02-11T15:06:20.763Z,2.95
2023-02-11T15:11:24.319Z,3.05
2023-02-11T15:16:27.636Z,3.50
2023-02-11T15:21:31.831Z,3.78
2023-02-11T15:26:33.956Z,4.40
2023-02-11T15:31:35.965Z,1.55
2023-02-11T15:36:38.757Z,2.80
2023-02-11T15:41:41.001Z,3.55
2023-02-11T15:46:47.513Z,3.08
2023-02-11T15:51:50.696Z,2.88
2023-02-11T15:56:55.613Z,3.63
2023-02-11T16:02:04.830Z,3.47
2023-02-11T16:07:06.838Z,5.05
2023-02-11T16:12:27.235Z,4.18
2023-02-11T16:17:29.835Z,2.67
2023-02-11T16:22:35.607Z,1.95
2023-02-11T16:27:41.727Z,3.65
2023-02-11T16:32:43.661Z,3.58
2023-02-11T16:37:45.632Z,3.30
2023-02-11T16:42:47.628Z,3.40
2023-02-11T16:47:49.744Z,3.63
2023-02-11T16:52:52.624Z,2.92
2023-02-11T16:57:55.719Z,2.20
2023-02-11T17:02:57.821Z,2.25
2023-02-11T17:08:02.553Z,2.97
2023-02-11T17:13:05.225Z,1.25
2023-02-11T17:18:07.149Z,2.95
2023-02-11T17:23:14.423Z,6.45
2023-02-11T17:28:16.545Z,2.60
2023-02-11T17:33:19.142Z,2.28
2023-02-11T17:38:20.969Z,4.10
2023-02-11T17:43:23.006Z,2.95
2023-02-11T17:48:25.101Z,2.78
2023-02-11T17:53:27.006Z,1.67
2023-02-11T17:58:28.937Z,4.63
2023-02-11T18:03:31.615Z,2.45
2023-02-11T18:08:34.767Z,4.47
2023-02-11T18:13:36.626Z,4.80
2023-02-11T18:18:38.528Z,5.53
2023-02-11T18:23:40.491Z,4.75
2023-02-11T18:28:45.588Z,5.38
2023-02-11T18:33:48.496Z,4.90
2023-02-11T18:38:52.721Z,4.57
2023-02-11T18:43:54.716Z,4.82
2023-02-11T18:48:56.605Z,5.13
2023-02-11T18:53:59.168Z,6.05
2023-02-11T18:59:01.765Z,3.03
2023-02-11T19:04:05.116Z,4.53
2023-02-11T19:09:12.528Z,4.82
2023-02-11T19:14:17.276Z,4.80
2023-02-11T19:19:19.802Z,4.88
2023-02-11T19:24:22.918Z,3.72
2023-02-11T19:29:25.413Z,4.40
2023-02-11T19:34:27.327Z,3.60
2023-02-11T19:39:29.242Z,4.57
2023-02-11T19:44:31.083Z,6.97
2023-02-11T19:49:33.315Z,4.10
2023-02-11T19:54:35.315Z,5.38
2023-02-11T19:59:37.286Z,5.70
2023-02-11T20:04:39.564Z,6.60
2023-02-11T20:09:42.594Z,6.38
2023-02-11T20:14:44.701Z,11.80
2023-02-11T20:19:46.532Z,11.75
2023-02-11T20:24:48.447Z,8.07
2023-02-11T20:29:50.506Z,7.72
2023-02-11T20:34:52.765Z,9.10
2023-02-11T20:39:54.821Z,13.25
2023-02-11T20:44:56.804Z,11.32
2023-02-11T20:49:59.142Z,8.95
2023-02-11T20:55:01.792Z,10.48
2023-02-11T21:00:04.103Z,12.18
2023-02-11T21:05:06.356Z,13.95
2023-02-11T21:10:09.503Z,15.00
2023-02-11T21:15:13.557Z,11.57
2023-02-11T21:20:15.483Z,7.82
2023-02-11T21:25:17.545Z,7.22
2023-02-11T21:30:19.737Z,11.15
2023-02-11T21:35:21.669Z,6.93
2023-02-11T21:40:27.535Z,10.82
2023-02-11T21:45:32.373Z,13.10
2023-02-11T21:50:34.402Z,6.80
2023-02-11T21:55:37.387Z,7.45
2023-02-11T22:00:39.616Z,8.32
2023-02-11T22:05:41.569Z,8.30
2023-02-11T22:10:43.458Z,6.80
2023-02-11T22:15:45.575Z,10.15
2023-02-11T22:20:58.150Z,10.20
2023-02-11T22:26:08.026Z,7.85
2023-02-11T22:31:30.261Z,6.72
2023-02-11T22:36:35.093Z,8.57
2023-02-11T22:41:41.869Z,9.55
2023-02-11T22:46:44.559Z,6.28
2023-02-11T22:51:47.199Z,8.52
2023-02-11T22:56:52.935Z,6.38
2023-02-11T23:01:54.921Z,7.68
2023-02-11T23:06:56.929Z,7.97
2023-02-11T23:11:59.008Z,6.88
2023-02-11T23:17:01.127Z,8.82
2023-02-11T23:22:04.241Z,9.68
2023-02-11T23:27:06.272Z,9.63
2023-02-11T23:32:08.335Z,8.15
2023-02-11T23:37:10.378Z,8.70
2023-02-11T23:42:12.486Z,8.65
2023-02-11T23:47:14.439Z,6.82
2023-02-11T23:52:16.845Z,8.52
2023-02-11T23:57:18.944Z,7.30
